sensor_id;sensor_type;location;lat;lon;timestamp;P1;durP1;ratioP1;P2;durP2;ratioP2
11618;SDS011;5865;48.776;9.280;2022-07-23T00:01:36;5.82;;;4.13;;
11618;SDS011;5865;48.776;9.280;2022-07-23T00:09:31;4.60;;;4.20;;
11618;SDS011;5865;48.776;9.280;2022-07-23T00:12:10;4.20;;;3.85;;
11618;SDS011;5865;48.776;9.280;2022-07-23T00:14:45;4.20;;;3.78;;
11618;SDS011;5865;48.776;9.280;2022-07-23T00:17:25;4.63;;;3.78;;
11618;SDS011;5865;48.776;9.280;2022-07-23T00:20:09;5.03;;;4.00;;
11618;SDS011;5865;48.776;9.280;2022-07-23T00:22:55;4.78;;;3.60;;
11618;SDS011;5865;48.776;9.280;2022-07-23T00:25:26;4.30;;;3.28;;
11618;SDS011;5865;48.776;9.280;2022-07-23T00:27:53;3.90;;;3.00;;
11618;SDS011;5865;48.776;9.280;2022-07-23T00:30:41;3.13;;;2.75;;
11618;SDS011;5865;48.776;9.280;2022-07-23T00:33:08;3.13;;;2.85;;
11618;SDS011;5865;48.776;9.280;2022-07-23T00:35:42;4.05;;;2.65;;
11618;SDS011;5865;48.776;9.280;2022-07-23T00:38:20;3.25;;;2.95;;
11618;SDS011;5865;48.776;9.280;2022-07-23T00:40:55;3.53;;;3.00;;
11618;SDS011;5865;48.776;9.280;2022-07-23T00:43:40;3.28;;;2.85;;
11618;SDS011;5865;48.776;9.280;2022-07-23T00:46:24;3.05;;;2.80;;
11618;SDS011;5865;48.776;9.280;2022-07-23T00:48:52;4.15;;;3.05;;
11618;SDS011;5865;48.776;9.280;2022-07-23T00:51:26;3.55;;;2.90;;
11618;SDS011;5865;48.776;9.280;2022-07-23T00:53:56;3.92;;;3.08;;
11618;SDS011;5865;48.776;9.280;2022-07-23T00:56:27;4.40;;;2.90;;
11618;SDS011;5865;48.776;9.280;2022-07-23T00:59:00;3.25;;;2.70;;
11618;SDS011;5865;48.776;9.280;2022-07-23T01:01:27;3.00;;;2.80;;
11618;SDS011;5865;48.776;9.280;2022-07-23T01:03:59;3.40;;;3.20;;
11618;SDS011;5865;48.776;9.280;2022-07-23T01:06:30;3.75;;;3.20;;
11618;SDS011;5865;48.776;9.280;2022-07-23T01:09:07;4.72;;;3.10;;
11618;SDS011;5865;48.776;9.280;2022-07-23T01:11:44;2.95;;;2.75;;
11618;SDS011;5865;48.776;9.280;2022-07-23T01:14:22;3.50;;;3.20;;
11618;SDS011;5865;48.776;9.280;2022-07-23T01:16:55;3.40;;;2.97;;
11618;SDS011;5865;48.776;9.280;2022-07-23T01:19:25;3.97;;;2.80;;
11618;SDS011;5865;48.776;9.280;2022-07-23T01:22:03;3.47;;;3.17;;
11618;SDS011;5865;48.776;9.280;2022-07-23T01:24:32;3.30;;;3.00;;
11618;SDS011;5865;48.776;9.280;2022-07-23T01:27:04;4.05;;;3.15;;
11618;SDS011;5865;48.776;9.280;2022-07-23T01:29:45;2.88;;;2.67;;
11618;SDS011;5865;48.776;9.280;2022-07-23T01:32:17;4.13;;;3.10;;
11618;SDS011;5865;48.776;9.280;2022-07-23T01:34:50;3.20;;;2.90;;
11618;SDS011;5865;48.776;9.280;2022-07-23T01:37:18;2.95;;;2.72;;
11618;SDS011;5865;48.776;9.280;2022-07-23T01:39:50;3.08;;;2.78;;
11618;SDS011;5865;48.776;9.280;2022-07-23T01:42:18;2.90;;;2.70;;
11618;SDS011;5865;48.776;9.280;2022-07-23T01:44:45;3.65;;;2.80;;
11618;SDS011;5865;48.776;9.280;2022-07-23T01:47:18;2.95;;;2.72;;
11618;SDS011;5865;48.776;9.280;2022-07-23T01:49:55;3.25;;;2.95;;
11618;SDS011;5865;48.776;9.280;2022-07-23T01:52:49;2.83;;;2.63;;
11618;SDS011;5865;48.776;9.280;2022-07-23T01:55:22;3.50;;;2.97;;
11618;SDS011;5865;48.776;9.280;2022-07-23T01:57:52;3.20;;;2.90;;
11618;SDS011;5865;48.776;9.280;2022-07-23T02:00:30;3.55;;;3.25;;
11618;SDS011;5865;48.776;9.280;2022-07-23T02:03:05;3.90;;;3.15;;
11618;SDS011;5865;48.776;9.280;2022-07-23T02:05:38;4.05;;;2.95;;
11618;SDS011;5865;48.776;9.280;2022-07-23T02:08:13;3.42;;;3.10;;
11618;SDS011;5865;48.776;9.280;2022-07-23T02:10:44;3.38;;;3.08;;
11618;SDS011;5865;48.776;9.280;2022-07-23T02:13:12;3.10;;;2.80;;
11618;SDS011;5865;48.776;9.280;2022-07-23T02:15:42;3.85;;;3.00;;
11618;SDS011;5865;48.776;9.280;2022-07-23T02:18:13;3.40;;;3.10;;
11618;SDS011;5865;48.776;9.280;2022-07-23T02:20:43;4.22;;;3.22;;
11618;SDS011;5865;48.776;9.280;2022-07-23T02:23:16;3.25;;;2.95;;
11618;SDS011;5865;48.776;9.280;2022-07-23T02:25:51;3.13;;;2.88;;
11618;SDS011;5865;48.776;9.280;2022-07-23T02:28:20;3.47;;;3.17;;
11618;SDS011;5865;48.776;9.280;2022-07-23T02:30:50;3.22;;;2.83;;
11618;SDS011;5865;48.776;9.280;2022-07-23T02:33:24;3.22;;;2.92;;
11618;SDS011;5865;48.776;9.280;2022-07-23T02:35:53;3.20;;;2.92;;
11618;SDS011;5865;48.776;9.280;2022-07-23T02:38:21;2.92;;;2.70;;
11618;SDS011;5865;48.776;9.280;2022-07-23T02:40:52;3.30;;;3.00;;
11618;SDS011;5865;48.776;9.280;2022-07-23T02:43:20;3.45;;;3.08;;
11618;SDS011;5865;48.776;9.280;2022-07-23T02:45:48;3.67;;;3.08;;
11618;SDS011;5865;48.776;9.280;2022-07-23T02:48:19;3.30;;;3.00;;
11618;SDS011;5865;48.776;9.280;2022-07-23T02:50:48;3.60;;;3.30;;
11618;SDS011;5865;48.776;9.280;2022-07-23T02:53:21;3.72;;;3.22;;
11618;SDS011;5865;48.776;9.280;2022-07-23T02:55:55;3.70;;;3.17;;
11618;SDS011;5865;48.776;9.280;2022-07-23T02:58:26;3.78;;;3.40;;
11618;SDS011;5865;48.776;9.280;2022-07-23T03:01:01;3.83;;;3.30;;
11618;SDS011;5865;48.776;9.280;2022-07-23T03:03:31;3.75;;;3.42;;
11618;SDS011;5865;48.776;9.280;2022-07-23T03:06:02;3.92;;;3.28;;
11618;SDS011;5865;48.776;9.280;2022-07-23T03:08:39;4.75;;;3.40;;
11618;SDS011;5865;48.776;9.280;2022-07-23T03:11:08;3.72;;;3.40;;
11618;SDS011;5865;48.776;9.280;2022-07-23T03:13:40;3.97;;;2.90;;
11618;SDS011;5865;48.776;9.280;2022-07-23T03:16:08;4.60;;;3.45;;
11618;SDS011;5865;48.776;9.280;2022-07-23T03:18:36;4.30;;;3.28;;
11618;SDS011;5865;48.776;9.280;2022-07-23T03:21:03;3.63;;;3.33;;
11618;SDS011;5865;48.776;9.280;2022-07-23T03:23:30;3.63;;;3.17;;
11618;SDS011;5865;48.776;9.280;2022-07-23T03:25:57;3.85;;;3.50;;
11618;SDS011;5865;48.776;9.280;2022-07-23T03:28:26;4.35;;;3.63;;
11618;SDS011;5865;48.776;9.280;2022-07-23T03:30:53;3.92;;;3.35;;
11618;SDS011;5865;48.776;9.280;2022-07-23T03:33:20;4.18;;;3.60;;
11618;SDS011;5865;48.776;9.280;2022-07-23T03:35:48;3.80;;;3.40;;
11618;SDS011;5865;48.776;9.280;2022-07-23T03:38:21;3.80;;;3.50;;
11618;SDS011;5865;48.776;9.280;2022-07-23T03:40:49;4.15;;;3.60;;
11618;SDS011;5865;48.776;9.280;2022-07-23T03:43:16;4.28;;;3.42;;
11618;SDS011;5865;48.776;9.280;2022-07-23T03:45:46;3.70;;;3.40;;
11618;SDS011;5865;48.776;9.280;2022-07-23T03:48:14;4.80;;;3.47;;
11618;SDS011;5865;48.776;9.280;2022-07-23T03:50:43;3.90;;;3.60;;
11618;SDS011;5865;48.776;9.280;2022-07-23T03:53:11;3.90;;;3.60;;
11618;SDS011;5865;48.776;9.280;2022-07-23T03:55:38;5.75;;;3.80;;
11618;SDS011;5865;48.776;9.280;2022-07-23T03:58:05;4.20;;;3.80;;
11618;SDS011;5865;48.776;9.280;2022-07-23T04:00:33;4.13;;;3.50;;
11618;SDS011;5865;48.776;9.280;2022-07-23T04:03:02;3.95;;;3.55;;
11618;SDS011;5865;48.776;9.280;2022-07-23T04:05:29;4.10;;;3.70;;
11618;SDS011;5865;48.776;9.280;2022-07-23T04:08:05;3.97;;;3.30;;
11618;SDS011;5865;48.776;9.280;2022-07-23T04:10:34;3.67;;;3.38;;
11618;SDS011;5865;48.776;9.280;2022-07-23T04:13:03;4.00;;;3.60;;
11618;SDS011;5865;48.776;9.280;2022-07-23T04:15:31;3.95;;;3.47;;
11618;SDS011;5865;48.776;9.280;2022-07-23T04:17:58;4.30;;;3.90;;
11618;SDS011;5865;48.776;9.280;2022-07-23T04:20:36;3.92;;;3.55;;
11618;SDS011;5865;48.776;9.280;2022-07-23T04:23:04;4.20;;;3.80;;
11618;SDS011;5865;48.776;9.280;2022-07-23T04:25:31;4.30;;;3.90;;
11618;SDS011;5865;48.776;9.280;2022-07-23T04:27:58;4.28;;;3.78;;
11618;SDS011;5865;48.776;9.280;2022-07-23T04:30:26;4.32;;;3.55;;
11618;SDS011;5865;48.776;9.280;2022-07-23T04:32:54;3.88;;;3.47;;
11618;SDS011;5865;48.776;9.280;2022-07-23T04:35:26;4.32;;;3.65;;
11618;SDS011;5865;48.776;9.280;2022-07-23T04:38:01;4.03;;;3.63;;
11618;SDS011;5865;48.776;9.280;2022-07-23T04:40:29;4.10;;;3.70;;
11618;SDS011;5865;48.776;9.280;2022-07-23T04:42:56;3.90;;;3.60;;
11618;SDS011;5865;48.776;9.280;2022-07-23T04:45:24;3.72;;;3.42;;
11618;SDS011;5865;48.776;9.280;2022-07-23T04:47:52;4.28;;;3.88;;
11618;SDS011;5865;48.776;9.280;2022-07-23T04:50:19;4.43;;;3.88;;
11618;SDS011;5865;48.776;9.280;2022-07-23T04:52:49;4.53;;;3.50;;
11618;SDS011;5865;48.776;9.280;2022-07-23T04:55:18;4.85;;;4.03;;
11618;SDS011;5865;48.776;9.280;2022-07-23T04:57:45;5.18;;;3.45;;
11618;SDS011;5865;48.776;9.280;2022-07-23T05:00:12;4.47;;;3.55;;
11618;SDS011;5865;48.776;9.280;2022-07-23T05:02:40;3.88;;;3.30;;
11618;SDS011;5865;48.776;9.280;2022-07-23T05:05:08;4.68;;;3.40;;
11618;SDS011;5865;48.776;9.280;2022-07-23T05:07:36;3.70;;;3.40;;
11618;SDS011;5865;48.776;9.280;2022-07-23T05:10:03;4.22;;;3.72;;
11618;SDS011;5865;48.776;9.280;2022-07-23T05:12:33;3.90;;;3.50;;
11618;SDS011;5865;48.776;9.280;2022-07-23T05:15:00;4.20;;;3.80;;
11618;SDS011;5865;48.776;9.280;2022-07-23T05:17:28;3.92;;;3.60;;
11618;SDS011;5865;48.776;9.280;2022-07-23T05:19:55;4.20;;;3.78;;
11618;SDS011;5865;48.776;9.280;2022-07-23T05:22:22;5.18;;;3.75;;
11618;SDS011;5865;48.776;9.280;2022-07-23T05:24:50;4.05;;;3.72;;
11618;SDS011;5865;48.776;9.280;2022-07-23T05:27:17;3.92;;;3.53;;
11618;SDS011;5865;48.776;9.280;2022-07-23T05:29:47;4.10;;;3.70;;
11618;SDS011;5865;48.776;9.280;2022-07-23T05:32:15;4.22;;;3.80;;
11618;SDS011;5865;48.776;9.280;2022-07-23T05:34:49;5.05;;;4.03;;
11618;SDS011;5865;48.776;9.280;2022-07-23T05:37:17;4.78;;;4.28;;
11618;SDS011;5865;48.776;9.280;2022-07-23T05:39:44;4.43;;;3.70;;
11618;SDS011;5865;48.776;9.280;2022-07-23T05:42:12;4.32;;;3.90;;
11618;SDS011;5865;48.776;9.280;2022-07-23T05:44:39;4.13;;;3.80;;
11618;SDS011;5865;48.776;9.280;2022-07-23T05:47:08;4.38;;;3.92;;
11618;SDS011;5865;48.776;9.280;2022-07-23T05:49:36;4.22;;;3.83;;
11618;SDS011;5865;48.776;9.280;2022-07-23T05:52:26;4.05;;;3.70;;
11618;SDS011;5865;48.776;9.280;2022-07-23T05:55:14;4.07;;;3.70;;
11618;SDS011;5865;48.776;9.280;2022-07-23T05:57:41;5.38;;;3.92;;
11618;SDS011;5865;48.776;9.280;2022-07-23T06:00:10;4.32;;;3.92;;
11618;SDS011;5865;48.776;9.280;2022-07-23T06:02:45;4.57;;;4.18;;
11618;SDS011;5865;48.776;9.280;2022-07-23T06:05:14;4.65;;;4.10;;
11618;SDS011;5865;48.776;9.280;2022-07-23T06:07:45;4.60;;;4.20;;
11618;SDS011;5865;48.776;9.280;2022-07-23T06:10:14;4.75;;;4.30;;
11618;SDS011;5865;48.776;9.280;2022-07-23T06:12:41;5.20;;;4.07;;
11618;SDS011;5865;48.776;9.280;2022-07-23T06:15:09;4.78;;;4.38;;
11618;SDS011;5865;48.776;9.280;2022-07-23T06:17:37;4.30;;;3.90;;
11618;SDS011;5865;48.776;9.280;2022-07-23T06:20:08;4.60;;;4.18;;
11618;SDS011;5865;48.776;9.280;2022-07-23T06:22:38;4.80;;;4.30;;
11618;SDS011;5865;48.776;9.280;2022-07-23T06:25:06;5.82;;;4.63;;
11618;SDS011;5865;48.776;9.280;2022-07-23T06:27:34;6.47;;;4.30;;
11618;SDS011;5865;48.776;9.280;2022-07-23T06:30:01;5.95;;;4.05;;
11618;SDS011;5865;48.776;9.280;2022-07-23T06:32:28;5.22;;;4.22;;
11618;SDS011;5865;48.776;9.280;2022-07-23T06:34:58;4.65;;;4.18;;
11618;SDS011;5865;48.776;9.280;2022-07-23T06:37:27;4.78;;;4.35;;
11618;SDS011;5865;48.776;9.280;2022-07-23T06:39:54;4.70;;;4.30;;
11618;SDS011;5865;48.776;9.280;2022-07-23T06:42:22;4.80;;;4.40;;
11618;SDS011;5865;48.776;9.280;2022-07-23T06:44:56;4.65;;;4.25;;
11618;SDS011;5865;48.776;9.280;2022-07-23T06:47:23;4.75;;;4.30;;
11618;SDS011;5865;48.776;9.280;2022-07-23T06:49:51;4.68;;;4.28;;
11618;SDS011;5865;48.776;9.280;2022-07-23T06:52:18;4.72;;;4.25;;
11618;SDS011;5865;48.776;9.280;2022-07-23T06:54:47;4.53;;;3.90;;
11618;SDS011;5865;48.776;9.280;2022-07-23T06:57:14;4.65;;;4.10;;
11618;SDS011;5865;48.776;9.280;2022-07-23T06:59:42;4.50;;;4.10;;
11618;SDS011;5865;48.776;9.280;2022-07-23T07:02:09;4.80;;;4.30;;
11618;SDS011;5865;48.776;9.280;2022-07-23T07:04:36;4.32;;;3.92;;
11618;SDS011;5865;48.776;9.280;2022-07-23T07:07:03;4.70;;;4.30;;
11618;SDS011;5865;48.776;9.280;2022-07-23T07:09:30;4.22;;;3.85;;
11618;SDS011;5865;48.776;9.280;2022-07-23T07:11:59;4.30;;;3.95;;
11618;SDS011;5865;48.776;9.280;2022-07-23T07:14:26;5.07;;;3.95;;
11618;SDS011;5865;48.776;9.280;2022-07-23T07:16:53;4.88;;;3.95;;
11618;SDS011;5865;48.776;9.280;2022-07-23T07:19:20;5.75;;;4.25;;
11618;SDS011;5865;48.776;9.280;2022-07-23T07:21:47;5.03;;;4.53;;
11618;SDS011;5865;48.776;9.280;2022-07-23T07:24:18;4.57;;;4.07;;
11618;SDS011;5865;48.776;9.280;2022-07-23T07:26:47;5.22;;;4.57;;
11618;SDS011;5865;48.776;9.280;2022-07-23T07:29:16;5.38;;;4.40;;
11618;SDS011;5865;48.776;9.280;2022-07-23T07:31:43;5.30;;;4.38;;
11618;SDS011;5865;48.776;9.280;2022-07-23T07:34:10;5.03;;;4.32;;
11618;SDS011;5865;48.776;9.280;2022-07-23T07:36:38;5.20;;;4.45;;
11618;SDS011;5865;48.776;9.280;2022-07-23T07:39:05;6.43;;;4.30;;
11618;SDS011;5865;48.776;9.280;2022-07-23T07:41:35;4.65;;;4.22;;
11618;SDS011;5865;48.776;9.280;2022-07-23T07:44:02;4.93;;;4.35;;
11618;SDS011;5865;48.776;9.280;2022-07-23T07:46:31;4.60;;;4.20;;
11618;SDS011;5865;48.776;9.280;2022-07-23T07:48:57;4.50;;;4.10;;
11618;SDS011;5865;48.776;9.280;2022-07-23T07:51:25;4.93;;;4.50;;
11618;SDS011;5865;48.776;9.280;2022-07-23T07:53:52;5.70;;;4.38;;
11618;SDS011;5865;48.776;9.280;2022-07-23T07:56:19;4.65;;;4.10;;
11618;SDS011;5865;48.776;9.280;2022-07-23T07:58:46;4.63;;;4.22;;
11618;SDS011;5865;48.776;9.280;2022-07-23T08:01:13;5.03;;;4.30;;
11618;SDS011;5865;48.776;9.280;2022-07-23T08:03:42;5.75;;;4.60;;
11618;SDS011;5865;48.776;9.280;2022-07-23T08:06:09;5.72;;;3.90;;
11618;SDS011;5865;48.776;9.280;2022-07-23T08:08:36;5.07;;;4.68;;
11618;SDS011;5865;48.776;9.280;2022-07-23T08:11:03;5.05;;;4.45;;
11618;SDS011;5865;48.776;9.280;2022-07-23T08:13:30;5.07;;;4.53;;
11618;SDS011;5865;48.776;9.280;2022-07-23T08:15:57;5.13;;;4.47;;
11618;SDS011;5865;48.776;9.280;2022-07-23T08:18:24;4.65;;;4.20;;
11618;SDS011;5865;48.776;9.280;2022-07-23T08:20:53;4.55;;;4.15;;
11618;SDS011;5865;48.776;9.280;2022-07-23T08:23:21;4.55;;;4.15;;
11618;SDS011;5865;48.776;9.280;2022-07-23T08:25:48;4.30;;;3.90;;
11618;SDS011;5865;48.776;9.280;2022-07-23T08:28:15;4.25;;;3.85;;
11618;SDS011;5865;48.776;9.280;2022-07-23T08:30:43;4.78;;;3.95;;
11618;SDS011;5865;48.776;9.280;2022-07-23T08:33:11;4.40;;;3.90;;
11618;SDS011;5865;48.776;9.280;2022-07-23T08:35:41;3.92;;;3.63;;
11618;SDS011;5865;48.776;9.280;2022-07-23T08:38:13;4.18;;;3.78;;
11618;SDS011;5865;48.776;9.280;2022-07-23T08:40:42;5.55;;;3.78;;
11618;SDS011;5865;48.776;9.280;2022-07-23T08:43:11;4.75;;;3.80;;
11618;SDS011;5865;48.776;9.280;2022-07-23T08:45:39;4.55;;;3.88;;
11618;SDS011;5865;48.776;9.280;2022-07-23T08:48:07;4.20;;;3.80;;
11618;SDS011;5865;48.776;9.280;2022-07-23T08:50:37;4.18;;;3.70;;
11618;SDS011;5865;48.776;9.280;2022-07-23T08:53:06;4.32;;;3.92;;
11618;SDS011;5865;48.776;9.280;2022-07-23T08:55:35;5.45;;;4.43;;
11618;SDS011;5865;48.776;9.280;2022-07-23T08:58:02;4.85;;;4.05;;
11618;SDS011;5865;48.776;9.280;2022-07-23T09:00:29;4.25;;;3.85;;
11618;SDS011;5865;48.776;9.280;2022-07-23T09:02:56;4.55;;;4.15;;
11618;SDS011;5865;48.776;9.280;2022-07-23T09:05:24;7.57;;;4.60;;
11618;SDS011;5865;48.776;9.280;2022-07-23T09:08:04;33.40;;;7.93;;
11618;SDS011;5865;48.776;9.280;2022-07-23T09:10:48;4.88;;;4.15;;
11618;SDS011;5865;48.776;9.280;2022-07-23T09:13:27;4.15;;;3.80;;
11618;SDS011;5865;48.776;9.280;2022-07-23T09:16:04;4.55;;;4.15;;
11618;SDS011;5865;48.776;9.280;2022-07-23T09:18:37;4.57;;;4.13;;
11618;SDS011;5865;48.776;9.280;2022-07-23T09:21:16;4.30;;;3.90;;
11618;SDS011;5865;48.776;9.280;2022-07-23T09:23:51;4.15;;;3.75;;
11618;SDS011;5865;48.776;9.280;2022-07-23T09:26:26;4.13;;;3.72;;
11618;SDS011;5865;48.776;9.280;2022-07-23T09:29:16;4.57;;;3.90;;
11618;SDS011;5865;48.776;9.280;2022-07-23T09:31:55;4.13;;;3.80;;
11618;SDS011;5865;48.776;9.280;2022-07-23T09:34:29;4.13;;;3.78;;
11618;SDS011;5865;48.776;9.280;2022-07-23T09:37:08;4.50;;;4.05;;
11618;SDS011;5865;48.776;9.280;2022-07-23T09:39:39;4.25;;;3.80;;
11618;SDS011;5865;48.776;9.280;2022-07-23T09:42:16;3.83;;;3.53;;
11618;SDS011;5865;48.776;9.280;2022-07-23T09:47:44;4.28;;;3.72;;
11618;SDS011;5865;48.776;9.280;2022-07-23T09:50:15;4.57;;;3.97;;
11618;SDS011;5865;48.776;9.280;2022-07-23T09:52:50;4.25;;;3.70;;
11618;SDS011;5865;48.776;9.280;2022-07-23T10:04:09;5.55;;;4.28;;
11618;SDS011;5865;48.776;9.280;2022-07-23T10:07:05;4.10;;;3.80;;
11618;SDS011;5865;48.776;9.280;2022-07-23T10:10:06;4.00;;;3.60;;
11618;SDS011;5865;48.776;9.280;2022-07-23T10:16:08;3.97;;;3.65;;
11618;SDS011;5865;48.776;9.280;2022-07-23T10:18:39;4.15;;;3.47;;
11618;SDS011;5865;48.776;9.280;2022-07-23T10:21:09;4.18;;;3.40;;
11618;SDS011;5865;48.776;9.280;2022-07-23T10:23:37;3.88;;;3.58;;
11618;SDS011;5865;48.776;9.280;2022-07-23T10:26:09;4.05;;;3.65;;
11618;SDS011;5865;48.776;9.280;2022-07-23T10:28:55;4.75;;;4.10;;
11618;SDS011;5865;48.776;9.280;2022-07-23T10:34:21;4.30;;;3.90;;
11618;SDS011;5865;48.776;9.280;2022-07-23T10:35:18;5.45;;;3.50;;
11618;SDS011;5865;48.776;9.280;2022-07-23T10:41:02;4.22;;;3.63;;
11618;SDS011;5865;48.776;9.280;2022-07-23T10:43:40;4.65;;;3.67;;
11618;SDS011;5865;48.776;9.280;2022-07-23T10:46:25;3.78;;;3.40;;
11618;SDS011;5865;48.776;9.280;2022-07-23T10:58:16;4.35;;;3.65;;
11618;SDS011;5865;48.776;9.280;2022-07-23T11:01:11;3.80;;;3.50;;
11618;SDS011;5865;48.776;9.280;2022-07-23T11:04:21;4.00;;;3.70;;
11618;SDS011;5865;48.776;9.280;2022-07-23T11:08:09;4.38;;;3.97;;
11618;SDS011;5865;48.776;9.280;2022-07-23T11:10:31;5.40;;;3.85;;
11618;SDS011;5865;48.776;9.280;2022-07-23T11:21:51;4.07;;;3.67;;
11618;SDS011;5865;48.776;9.280;2022-07-23T11:24:51;4.82;;;3.65;;
11618;SDS011;5865;48.776;9.280;2022-07-23T11:27:44;4.13;;;3.83;;
11618;SDS011;5865;48.776;9.280;2022-07-23T11:33:21;4.35;;;3.72;;
11618;SDS011;5865;48.776;9.280;2022-07-23T11:36:05;4.28;;;3.88;;
11618;SDS011;5865;48.776;9.280;2022-07-23T11:38:35;4.20;;;3.80;;
11618;SDS011;5865;48.776;9.280;2022-07-23T11:41:16;4.55;;;4.15;;
11618;SDS011;5865;48.776;9.280;2022-07-23T11:43:50;4.22;;;3.83;;
11618;SDS011;5865;48.776;9.280;2022-07-23T11:46:22;4.25;;;3.85;;
11618;SDS011;5865;48.776;9.280;2022-07-23T11:49:12;4.75;;;3.78;;
11618;SDS011;5865;48.776;9.280;2022-07-23T11:51:45;3.90;;;3.50;;
11618;SDS011;5865;48.776;9.280;2022-07-23T11:54:30;4.07;;;3.70;;
11618;SDS011;5865;48.776;9.280;2022-07-23T11:57:00;5.28;;;4.00;;
11618;SDS011;5865;48.776;9.280;2022-07-23T11:59:29;4.38;;;3.88;;
11618;SDS011;5865;48.776;9.280;2022-07-23T12:02:05;4.30;;;3.90;;
11618;SDS011;5865;48.776;9.280;2022-07-23T12:04:49;4.00;;;3.70;;
11618;SDS011;5865;48.776;9.280;2022-07-23T12:07:34;3.90;;;3.50;;
11618;SDS011;5865;48.776;9.280;2022-07-23T12:10:18;4.20;;;3.80;;
11618;SDS011;5865;48.776;9.280;2022-07-23T12:12:48;3.92;;;3.60;;
11618;SDS011;5865;48.776;9.280;2022-07-23T12:15:19;3.95;;;3.65;;
11618;SDS011;5865;48.776;9.280;2022-07-23T12:17:49;4.47;;;3.72;;
11618;SDS011;5865;48.776;9.280;2022-07-23T12:20:17;5.22;;;3.72;;
11618;SDS011;5865;48.776;9.280;2022-07-23T12:22:47;4.50;;;4.10;;
11618;SDS011;5865;48.776;9.280;2022-07-23T12:25:18;5.10;;;4.10;;
11618;SDS011;5865;48.776;9.280;2022-07-23T12:27:56;4.30;;;3.90;;
11618;SDS011;5865;48.776;9.280;2022-07-23T12:30:25;4.05;;;3.75;;
11618;SDS011;5865;48.776;9.280;2022-07-23T12:32:56;4.43;;;4.00;;
11618;SDS011;5865;48.776;9.280;2022-07-23T12:35:29;4.53;;;4.10;;
11618;SDS011;5865;48.776;9.280;2022-07-23T12:37:59;4.00;;;3.70;;
11618;SDS011;5865;48.776;9.280;2022-07-23T12:40:29;5.57;;;3.97;;
11618;SDS011;5865;48.776;9.280;2022-07-23T12:42:58;4.90;;;4.50;;
11618;SDS011;5865;48.776;9.280;2022-07-23T12:45:28;4.30;;;3.90;;
11618;SDS011;5865;48.776;9.280;2022-07-23T12:48:08;4.20;;;3.90;;
11618;SDS011;5865;48.776;9.280;2022-07-23T12:50:42;4.00;;;3.70;;
11618;SDS011;5865;48.776;9.280;2022-07-23T12:53:15;4.30;;;4.00;;
11618;SDS011;5865;48.776;9.280;2022-07-23T12:55:46;4.50;;;3.92;;
11618;SDS011;5865;48.776;9.280;2022-07-23T12:58:14;6.25;;;4.25;;
11618;SDS011;5865;48.776;9.280;2022-07-23T13:00:52;4.53;;;3.80;;
11618;SDS011;5865;48.776;9.280;2022-07-23T13:03:20;4.75;;;4.25;;
11618;SDS011;5865;48.776;9.280;2022-07-23T13:05:48;4.95;;;4.07;;
11618;SDS011;5865;48.776;9.280;2022-07-23T13:08:15;4.35;;;3.90;;
11618;SDS011;5865;48.776;9.280;2022-07-23T13:10:42;4.45;;;4.05;;
11618;SDS011;5865;48.776;9.280;2022-07-23T13:13:13;5.47;;;4.60;;
11618;SDS011;5865;48.776;9.280;2022-07-23T13:15:42;4.50;;;4.10;;
11618;SDS011;5865;48.776;9.280;2022-07-23T13:18:09;4.47;;;4.07;;
11618;SDS011;5865;48.776;9.280;2022-07-23T13:20:37;4.93;;;4.07;;
11618;SDS011;5865;48.776;9.280;2022-07-23T13:23:04;5.10;;;4.50;;
11618;SDS011;5865;48.776;9.280;2022-07-23T13:25:32;4.55;;;4.13;;
11618;SDS011;5865;48.776;9.280;2022-07-23T13:27:59;4.45;;;4.05;;
11618;SDS011;5865;48.776;9.280;2022-07-23T13:30:31;4.60;;;4.30;;
11618;SDS011;5865;48.776;9.280;2022-07-23T13:32:58;4.53;;;3.83;;
11618;SDS011;5865;48.776;9.280;2022-07-23T13:35:25;4.85;;;4.15;;
11618;SDS011;5865;48.776;9.280;2022-07-23T13:37:53;4.50;;;4.10;;
11618;SDS011;5865;48.776;9.280;2022-07-23T13:40:20;5.38;;;4.60;;
11618;SDS011;5865;48.776;9.280;2022-07-23T13:42:47;4.70;;;4.30;;
11618;SDS011;5865;48.776;9.280;2022-07-23T13:45:14;4.10;;;3.80;;
11618;SDS011;5865;48.776;9.280;2022-07-23T13:47:43;4.78;;;4.28;;
11618;SDS011;5865;48.776;9.280;2022-07-23T13:50:10;6.10;;;4.10;;
11618;SDS011;5865;48.776;9.280;2022-07-23T13:52:37;4.75;;;4.03;;
11618;SDS011;5865;48.776;9.280;2022-07-23T13:55:05;4.68;;;4.20;;
11618;SDS011;5865;48.776;9.280;2022-07-23T13:57:33;4.78;;;4.05;;
11618;SDS011;5865;48.776;9.280;2022-07-23T14:00:01;4.40;;;4.00;;
11618;SDS011;5865;48.776;9.280;2022-07-23T14:02:31;4.65;;;4.25;;
11618;SDS011;5865;48.776;9.280;2022-07-23T14:05:01;4.90;;;4.07;;
11618;SDS011;5865;48.776;9.280;2022-07-23T14:07:30;5.43;;;4.03;;
11618;SDS011;5865;48.776;9.280;2022-07-23T14:09:57;4.80;;;4.40;;
11618;SDS011;5865;48.776;9.280;2022-07-23T14:12:24;5.28;;;4.38;;
11618;SDS011;5865;48.776;9.280;2022-07-23T14:14:52;4.88;;;4.40;;
11618;SDS011;5865;48.776;9.280;2022-07-23T14:17:20;5.55;;;4.50;;
11618;SDS011;5865;48.776;9.280;2022-07-23T14:19:48;5.00;;;4.60;;
11618;SDS011;5865;48.776;9.280;2022-07-23T14:22:16;5.40;;;4.60;;
11618;SDS011;5865;48.776;9.280;2022-07-23T14:24:43;5.03;;;4.53;;
11618;SDS011;5865;48.776;9.280;2022-07-23T14:27:10;4.97;;;4.55;;
11618;SDS011;5865;48.776;9.280;2022-07-23T14:29:41;5.30;;;4.80;;
11618;SDS011;5865;48.776;9.280;2022-07-23T14:32:10;5.25;;;4.75;;
11618;SDS011;5865;48.776;9.280;2022-07-23T14:34:37;4.85;;;4.30;;
11618;SDS011;5865;48.776;9.280;2022-07-23T14:37:07;4.97;;;4.57;;
11618;SDS011;5865;48.776;9.280;2022-07-23T14:39:35;4.93;;;4.60;;
11618;SDS011;5865;48.776;9.280;2022-07-23T14:42:03;4.50;;;4.18;;
11618;SDS011;5865;48.776;9.280;2022-07-23T14:44:30;5.10;;;4.70;;
11618;SDS011;5865;48.776;9.280;2022-07-23T14:46:57;5.35;;;4.85;;
11618;SDS011;5865;48.776;9.280;2022-07-23T14:49:25;5.13;;;4.60;;
11618;SDS011;5865;48.776;9.280;2022-07-23T14:51:52;4.78;;;4.35;;
11618;SDS011;5865;48.776;9.280;2022-07-23T14:54:19;5.30;;;4.80;;
11618;SDS011;5865;48.776;9.280;2022-07-23T14:56:49;4.78;;;4.38;;
11618;SDS011;5865;48.776;9.280;2022-07-23T14:59:21;5.13;;;4.50;;
11618;SDS011;5865;48.776;9.280;2022-07-23T15:01:56;4.75;;;4.35;;
11618;SDS011;5865;48.776;9.280;2022-07-23T15:04:23;4.80;;;4.40;;
11618;SDS011;5865;48.776;9.280;2022-07-23T15:06:51;7.97;;;6.57;;
11618;SDS011;5865;48.776;9.280;2022-07-23T15:09:18;5.38;;;4.90;;
11618;SDS011;5865;48.776;9.280;2022-07-23T15:11:45;5.10;;;4.70;;
11618;SDS011;5865;48.776;9.280;2022-07-23T15:14:14;4.95;;;4.47;;
11618;SDS011;5865;48.776;9.280;2022-07-23T15:16:41;5.35;;;4.85;;
11618;SDS011;5865;48.776;9.280;2022-07-23T15:19:08;4.75;;;4.25;;
11618;SDS011;5865;48.776;9.280;2022-07-23T15:21:35;5.00;;;4.53;;
11618;SDS011;5865;48.776;9.280;2022-07-23T15:24:03;4.47;;;4.00;;
11618;SDS011;5865;48.776;9.280;2022-07-23T15:26:30;4.55;;;4.15;;
11618;SDS011;5865;48.776;9.280;2022-07-23T15:28:57;4.47;;;4.10;;
11618;SDS011;5865;48.776;9.280;2022-07-23T15:31:29;5.22;;;4.30;;
11618;SDS011;5865;48.776;9.280;2022-07-23T15:33:56;6.60;;;4.40;;
11618;SDS011;5865;48.776;9.280;2022-07-23T15:36:23;5.18;;;4.30;;
11618;SDS011;5865;48.776;9.280;2022-07-23T15:38:50;4.90;;;4.50;;
11618;SDS011;5865;48.776;9.280;2022-07-23T15:41:18;7.13;;;4.30;;
11618;SDS011;5865;48.776;9.280;2022-07-23T15:43:45;4.35;;;3.95;;
11618;SDS011;5865;48.776;9.280;2022-07-23T15:46:12;4.53;;;4.18;;
11618;SDS011;5865;48.776;9.280;2022-07-23T15:48:40;5.30;;;4.20;;
11618;SDS011;5865;48.776;9.280;2022-07-23T15:51:07;4.40;;;3.88;;
11618;SDS011;5865;48.776;9.280;2022-07-23T15:53:34;4.43;;;4.03;;
11618;SDS011;5865;48.776;9.280;2022-07-23T15:56:03;4.53;;;4.00;;
11618;SDS011;5865;48.776;9.280;2022-07-23T15:58:31;4.47;;;4.07;;
11618;SDS011;5865;48.776;9.280;2022-07-23T16:00:58;4.18;;;3.78;;
11618;SDS011;5865;48.776;9.280;2022-07-23T16:03:28;4.55;;;4.15;;
11618;SDS011;5865;48.776;9.280;2022-07-23T16:05:56;6.63;;;4.13;;
11618;SDS011;5865;48.776;9.280;2022-07-23T16:08:24;4.63;;;3.95;;
11618;SDS011;5865;48.776;9.280;2022-07-23T16:10:51;4.70;;;4.30;;